Time;durP1;ratioP1;P1;durP2;ratioP2;P2;SDS_P1;SDS_P2;PMS_P1;PMS_P2;Temp;Humidity;BMP_temperature;BMP_pressure;BME280_temperature;BME280_humidity;BME280_pressure;Samples;Min_cycle;Max_cycle;Signal;HPM_P1;HPM_P2
2021/10/02 00:36:10;;;;;;;6.68;1.90;;;;;;;11.30;94.35;100332.84;6219273;23;20035;-75
2021/10/02 00:46:46;;;;;;;4.85;1.75;;;;;;;11.20;93.90;100285.78;6218994;23;20147;-75
2021/10/02 00:49:11;;;;;;;7.68;2.28;;;;;;;11.22;94.21;100274.34;6167996;23;20009;-75
2021/10/02 00:51:39;;;;;;;8.50;2.08;;;;;;;11.14;94.38;100262.78;6143462;23;20058;-75
2021/10/02 00:54:05;;;;;;;3.92;1.80;;;;;;;11.13;94.44;100279.75;6218905;23;20472;-75
2021/10/02 00:56:30;;;;;;;5.97;2.00;;;;;;;11.10;94.37;100272.03;6167790;23;20087;-75
2021/10/02 00:58:56;;;;;;;5.40;2.10;;;;;;;11.09;95.41;100271.22;6218841;23;20032;-75
2021/10/02 01:01:26;;;;;;;5.22;1.90;;;;;;;11.09;95.26;100270.38;6218740;23;20008;-74
2021/10/02 01:04:13;;;;;;;7.15;2.67;;;;;;;11.06;96.43;100279.31;6143313;23;20012;-75
2021/10/02 01:06:46;;;;;;;9.75;2.30;;;;;;;11.07;95.79;100267.09;6167717;23;20043;-75
2021/10/02 01:09:34;;;;;;;7.05;2.70;;;;;;;11.05;97.07;100270.16;6193395;23;20005;-75
2021/10/02 01:12:15;;;;;;;7.88;2.45;;;;;;;11.06;96.06;100259.84;6192165;23;20036;-75
2021/10/02 01:14:44;;;;;;;6.15;2.80;;;;;;;11.06;95.74;100259.84;6193539;23;20005;-75
2021/10/02 01:17:22;;;;;;;6.10;2.67;;;;;;;11.09;95.90;100254.53;6168187;23;20021;-75
2021/10/02 01:20:08;;;;;;;10.80;3.00;;;;;;;11.08;96.24;100246.50;6192130;23;20032;-75
2021/10/02 01:23:16;;;;;;;5.90;2.05;;;;;;;11.09;95.85;100248.97;6191894;23;20076;-76
2021/10/02 01:26:03;;;;;;;7.38;3.13;;;;;;;11.09;95.82;100256.50;6156090;23;20632;-76
2021/10/02 01:28:28;;;;;;;7.80;3.42;;;;;;;11.09;97.22;100250.94;6214564;23;20008;-76
2021/10/02 01:33:39;;;;;;;7.75;3.03;;;;;;;11.10;96.71;100241.47;6191763;23;20004;-76
2021/10/02 01:47:30;;;;;;;6.93;2.83;;;;;;;11.09;94.90;100218.41;6175116;23;20011;-75
2021/10/02 01:49:56;;;;;;;6.72;2.35;;;;;;;11.06;95.51;100210.69;6167367;23;20034;-75
2021/10/02 01:52:30;;;;;;;6.90;2.60;;;;;;;11.07;95.20;100219.84;6191940;23;20460;-75
2021/10/02 01:54:56;;;;;;;11.23;2.95;;;;;;;11.04;95.27;100217.66;6191576;23;20053;-75
2021/10/02 01:57:29;;;;;;;8.30;2.63;;;;;;;11.01;95.08;100209.94;6191821;23;20330;-75
2021/10/02 01:59:57;;;;;;;;;;;;;;;10.99;95.10;100189.97;6169120;23;20445;-75
2021/10/02 02:02:26;;;;;;;7.03;2.92;;;;;;;10.99;95.52;100184.41;6192133;23;19928;-75
2021/10/02 02:04:54;;;;;;;6.93;3.13;;;;;;;10.98;95.38;100185.53;6167328;23;20062;-75
2021/10/02 02:07:21;;;;;;;9.05;3.05;;;;;;;10.94;96.03;100180.56;6167304;23;20036;-75
2021/10/02 02:09:47;;;;;;;8.23;2.88;;;;;;;10.93;95.65;100183.69;6167563;23;20012;-75
2021/10/02 02:12:13;;;;;;;3.70;2.45;;;;;;;10.92;95.28;100173.66;6167231;23;20012;-75
2021/10/02 02:14:40;;;;;;;6.95;2.78;;;;;;;10.90;95.92;100179.53;6192413;23;20009;-75
2021/10/02 02:17:06;;;;;;;8.02;2.42;;;;;;;10.91;95.57;100181.19;6166994;23;20043;-75
2021/10/02 02:19:32;;;;;;;6.10;2.42;;;;;;;10.92;95.22;100174.53;6167127;23;20370;-75
2021/10/02 02:21:57;;;;;;;6.50;2.25;;;;;;;10.92;95.46;100166.19;6166901;23;20015;-75
2021/10/02 02:24:22;;;;;;;4.53;2.33;;;;;;;10.92;95.84;100157.84;6166811;23;20009;-75
2021/10/02 02:26:48;;;;;;;7.30;2.60;;;;;;;10.91;96.28;100145.06;6192009;23;20008;-75
2021/10/02 02:29:13;;;;;;;6.57;2.45;;;;;;;10.94;96.20;100136.13;6191730;23;20311;-75
2021/10/02 02:31:39;;;;;;;8.50;2.97;;;;;;;10.92;96.59;100132.84;6166943;23;20009;-75
2021/10/02 02:34:04;;;;;;;8.38;2.30;;;;;;;10.93;96.15;100134.47;6166975;23;20004;-75
2021/10/02 02:36:30;;;;;;;7.03;2.45;;;;;;;10.93;96.36;100134.47;6192130;23;20074;-75
2021/10/02 02:38:55;;;;;;;9.30;2.58;;;;;;;10.94;96.08;100126.97;6167049;23;20005;-76
2021/10/02 02:41:21;;;;;;;8.65;2.80;;;;;;;10.93;96.22;100123.38;6193712;23;20017;-75
2021/10/02 02:43:46;;;;;;;9.32;2.33;;;;;;;10.93;96.21;100112.25;6220079;23;20064;-75
2021/10/02 02:46:24;;;;;;;9.55;2.53;;;;;;;10.92;96.04;100121.72;6168993;23;20013;-77
2021/10/02 02:49:15;;;;;;;8.25;2.65;;;;;;;10.90;97.01;100121.22;6193701;23;20008;-75
2021/10/02 02:51:58;;;;;;;10.85;2.67;;;;;;;10.91;95.52;100122.84;6170617;23;20012;-76
2021/10/02 02:54:45;;;;;;;12.57;3.42;;;;;;;10.90;96.29;100118.44;6193424;23;20027;-76
2021/10/02 02:57:13;;;;;;;8.05;3.15;;;;;;;10.89;96.62;100105.69;6193307;23;20517;-75
2021/10/02 02:59:43;;;;;;;10.65;3.15;;;;;;;10.89;96.17;100108.47;6194026;23;20000;-75
2021/10/02 03:02:11;;;;;;;11.82;3.63;;;;;;;10.89;96.63;100089.00;6168910;23;20005;-76
2021/10/02 03:04:36;;;;;;;9.57;3.28;;;;;;;10.90;96.74;100087.88;6168823;23;20330;-75
2021/10/02 03:07:03;;;;;;;11.45;3.42;;;;;;;10.94;96.55;100091.66;6193676;23;20008;-75
2021/10/02 03:09:33;;;;;;;10.05;3.83;;;;;;;10.94;97.64;100088.88;6168113;23;20009;-75
2021/10/02 03:11:58;;;;;;;11.45;4.00;;;;;;;10.95;97.54;100081.41;6168639;23;20028;-75
2021/10/02 03:14:24;;;;;;;14.02;4.30;;;;;;;10.99;97.11;100070.50;6193239;23;20012;-76
2021/10/02 03:16:52;;;;;;;11.07;3.80;;;;;;;10.97;97.01;100065.22;6219997;23;20015;-75
2021/10/02 03:19:18;;;;;;;15.45;4.10;;;;;;;11.00;97.87;100061.00;6168726;23;20346;-75
2021/10/02 03:21:45;;;;;;;11.57;4.15;;;;;;;11.01;97.94;100051.56;6219769;23;20017;-76
2021/10/02 03:24:11;;;;;;;12.25;4.47;;;;;;;11.03;97.68;100044.56;6168243;23;20016;-75
2021/10/02 03:26:37;;;;;;;14.15;5.00;;;;;;;11.04;98.41;100045.38;6168446;23;20071;-75
2021/10/02 03:29:03;;;;;;;13.68;4.10;;;;;;;11.04;98.20;100035.09;6168475;23;20444;-76
2021/10/02 03:31:28;;;;;;;12.38;4.18;;;;;;;11.07;98.51;100028.09;6193044;23;20012;-76
2021/10/02 03:33:54;;;;;;;11.93;5.35;;;;;;;11.07;100.00;100015.00;6168203;23;20008;-76
2021/10/02 03:36:19;;;;;;;16.85;4.78;;;;;;;11.10;99.73;100005.25;6168333;23;20012;-78
2021/10/02 03:38:45;;;;;;;13.82;4.15;;;;;;;11.10;98.83;100008.00;6167918;23;20047;-75
2021/10/02 03:41:10;;;;;;;12.40;3.78;;;;;;;11.12;98.70;100003.78;6143768;23;20005;-74
2021/10/02 03:43:36;;;;;;;17.58;4.57;;;;;;;11.14;99.07;100006.25;6168194;23;20012;-75
2021/10/02 03:46:02;;;;;;;12.75;4.00;;;;;;;11.14;99.41;99995.97;6192865;23;20008;-75
2021/10/02 03:48:28;;;;;;;12.43;3.72;;;;;;;11.17;99.35;100000.06;6168211;23;20046;-75
2021/10/02 03:50:54;;;;;;;16.40;3.90;;;;;;;11.21;98.79;99987.22;6192923;23;20008;-75
2021/10/02 03:53:20;;;;;;;16.50;3.88;;;;;;;11.22;99.37;99977.72;6168025;23;20048;-76
2021/10/02 03:55:45;;;;;;;11.50;3.58;;;;;;;11.22;98.56;99976.91;6192758;23;20015;-75
2021/10/02 03:58:11;;;;;;;13.40;3.55;;;;;;;11.25;98.71;99979.88;6168163;23;20611;-76
2021/10/02 04:00:36;;;;;;;14.25;3.75;;;;;;;11.26;99.08;99981.53;6193095;23;20418;-76
2021/10/02 04:03:02;;;;;;;12.77;3.58;;;;;;;11.27;98.42;99974.84;6193112;23;20004;-76
2021/10/02 04:05:27;;;;;;;17.52;4.55;;;;;;;11.28;100.00;99961.75;6167744;23;20015;-76
2021/10/02 04:07:53;;;;;;;11.82;3.70;;;;;;;11.29;98.61;99980.09;6192606;23;20008;-76
2021/10/02 04:10:18;;;;;;;13.27;3.67;;;;;;;11.26;98.54;99959.31;6219035;23;20004;-76
2021/10/02 04:12:43;;;;;;;14.07;3.90;;;;;;;11.31;98.79;99958.34;6193004;23;20008;-76
2021/10/02 04:15:09;;;;;;;13.85;3.45;;;;;;;11.31;98.43;99966.69;6219561;23;20015;-76
2021/10/02 04:17:35;;;;;;;11.02;3.92;;;;;;;11.35;98.97;99962.97;6192530;23;20638;-76
2021/10/02 04:20:00;;;;;;;11.25;3.35;;;;;;;11.34;99.68;99950.22;6193031;23;20011;-77
2021/10/02 04:22:26;;;;;;;12.65;3.60;;;;;;;11.35;100.00;99960.19;6192398;23;20028;-76
2021/10/02 04:24:51;;;;;;;11.45;3.50;;;;;;;11.32;99.26;99954.44;6192532;23;20013;-76
2021/10/02 04:27:17;;;;;;;12.85;4.05;;;;;;;11.36;99.67;99934.03;6192437;23;20004;-76
2021/10/02 04:29:42;;;;;;;14.95;3.67;;;;;;;11.35;99.46;99918.50;6217594;23;20009;-76
2021/10/02 04:32:08;;;;;;;16.60;3.88;;;;;;;11.35;100.00;99912.94;6192321;23;20004;-75
2021/10/02 04:34:33;;;;;;;16.17;3.75;;;;;;;11.36;100.00;99911.78;6219238;23;20043;-75
2021/10/02 04:37:00;;;;;;;15.85;3.63;;;;;;;11.38;100.00;99909.53;6192329;23;20004;-75
2021/10/02 04:39:26;;;;;;;15.75;3.83;;;;;;;11.40;100.00;99898.94;6191912;23;20004;-76
2021/10/02 04:41:52;;;;;;;10.85;3.70;;;;;;;11.42;99.83;99901.38;6167566;23;20011;-76
2021/10/02 04:44:17;;;;;;;14.82;3.40;;;;;;;11.41;99.72;99899.75;6192224;23;20036;-76
2021/10/02 04:46:43;;;;;;;15.35;3.55;;;;;;;11.43;100.00;99902.22;6219333;23;20329;-75
2021/10/02 04:49:09;;;;;;;14.38;3.33;;;;;;;11.44;99.94;99892.72;6192103;23;20374;-76
2021/10/02 04:51:36;;;;;;;13.93;3.47;;;;;;;11.47;100.00;99897.66;6192649;23;20601;-76
2021/10/02 04:54:02;;;;;;;13.98;4.15;;;;;;;11.47;100.00;99892.91;6192450;23;20032;-76
2021/10/02 04:56:27;;;;;;;16.45;3.60;;;;;;;11.49;99.98;99884.28;6192406;23;20005;-76
2021/10/02 04:58:53;;;;;;;15.65;3.65;;;;;;;11.51;100.00;99882.00;6192728;23;20008;-75
2021/10/02 05:01:18;;;;;;;15.43;3.58;;;;;;;11.52;100.00;99892.78;6192241;23;20005;-75
2021/10/02 05:03:44;;;;;;;14.65;4.28;;;;;;;11.53;100.00;99893.63;6192025;23;20203;-75
2021/10/02 05:06:09;;;;;;;19.45;4.45;;;;;;;11.51;100.00;99891.16;6167398;23;20008;-76
2021/10/02 05:08:35;;;;;;;11.73;3.65;;;;;;;11.52;100.00;99889.19;6192239;23;20403;-76
2021/10/02 05:11:00;;;;;;;18.13;3.92;;;;;;;11.51;100.00;99895.91;6192269;23;20012;-76
2021/10/02 05:13:26;;;;;;;11.77;3.97;;;;;;;11.54;100.00;99884.16;6167334;23;20005;-76
2021/10/02 05:15:52;;;;;;;17.75;4.18;;;;;;;11.54;100.00;99873.84;6142980;23;20384;-77
2021/10/02 05:18:17;;;;;;;14.52;4.18;;;;;;;11.55;100.00;99872.69;6218791;23;20066;-76
2021/10/02 05:20:43;;;;;;;20.33;4.53;;;;;;;11.57;100.00;99869.63;6219065;23;20201;-75
2021/10/02 05:23:08;;;;;;;14.50;4.07;;;;;;;11.59;100.00;99861.78;6191595;23;20017;-75
2021/10/02 05:25:34;;;;;;;11.57;3.53;;;;;;;11.58;100.00;99852.59;6218616;23;20012;-76
2021/10/02 05:27:59;;;;;;;14.65;3.90;;;;;;;11.57;100.00;99842.63;6192120;23;20020;-76
2021/10/02 05:30:25;;;;;;;13.70;3.67;;;;;;;11.62;100.00;99844.47;6218977;23;20004;-77
2021/10/02 05:32:51;;;;;;;10.82;3.45;;;;;;;11.61;100.00;99840.84;6167416;23;20087;-76
2021/10/02 05:35:16;;;;;;;12.95;3.42;;;;;;;11.66;100.00;99833.50;6191676;23;20039;-77
2021/10/02 05:37:42;;;;;;;9.68;3.00;;;;;;;11.67;100.00;99822.06;6191825;23;20009;-75
2021/10/02 05:40:08;;;;;;;11.15;3.63;;;;;;;11.67;100.00;99802.59;6216847;23;20031;-75
2021/10/02 05:42:33;;;;;;;12.20;3.42;;;;;;;11.70;100.00;99803.91;6192252;23;20445;-75
2021/10/02 05:44:59;;;;;;;9.80;3.17;;;;;;;11.72;100.00;99801.63;6218453;23;20816;-75
2021/10/02 05:47:24;;;;;;;9.45;3.17;;;;;;;11.71;100.00;99800.00;6192040;23;20005;-75
2021/10/02 05:49:50;;;;;;;7.97;2.80;;;;;;;11.71;100.00;99803.59;6191843;23;20088;-75
2021/10/02 05:52:16;;;;;;;11.07;2.97;;;;;;;11.75;100.00;99789.88;6217113;23;20012;-75
2021/10/02 05:54:41;;;;;;;9.07;3.25;;;;;;;11.73;100.00;99783.78;6192149;23;20036;-75
2021/10/02 05:57:07;;;;;;;11.13;2.70;;;;;;;11.76;100.00;99781.22;6191799;23;20426;-76
2021/10/02 05:59:32;;;;;;;10.27;3.08;;;;;;;11.78;100.00;99781.72;6218432;23;20035;-76
2021/10/02 06:01:58;;;;;;;11.15;2.70;;;;;;;11.80;100.00;99767.47;6191833;23;20004;-77
2021/10/02 06:04:23;;;;;;;7.63;2.70;;;;;;;11.79;100.00;99763.88;6192235;23;20048;-76
2021/10/02 06:06:49;;;;;;;8.93;2.80;;;;;;;11.82;100.00;99756.84;6192181;23;20001;-76
2021/10/02 06:09:15;;;;;;;7.63;2.70;;;;;;;11.81;100.00;99760.75;6191379;23;20008;-76
2021/10/02 06:11:40;;;;;;;7.75;2.33;;;;;;;11.83;100.00;99747.38;6191865;23;20508;-76
2021/10/02 06:14:06;;;;;;;12.05;2.67;;;;;;;11.85;100.00;99737.59;6219431;23;20008;-76
2021/10/02 06:16:32;;;;;;;13.18;3.20;;;;;;;11.89;100.00;99731.38;6194042;23;20007;-76
2021/10/02 06:18:57;;;;;;;9.23;2.55;;;;;;;11.87;100.00;99737.28;6193938;23;20506;-76
2021/10/02 06:21:23;;;;;;;10.63;2.75;;;;;;;11.88;100.00;99741.69;6193609;23;20013;-76
2021/10/02 06:23:48;;;;;;;11.45;2.92;;;;;;;11.88;100.00;99718.63;6193398;23;20013;-75
2021/10/02 06:26:14;;;;;;;12.00;2.50;;;;;;;11.88;100.00;99732.53;6220326;23;20012;-74
2021/10/02 06:28:39;;;;;;;11.60;3.03;;;;;;;11.88;100.00;99713.88;6168939;23;20013;-76
2021/10/02 06:31:05;;;;;;;8.55;2.60;;;;;;;11.92;100.00;99714.03;6219959;23;20015;-76
2021/10/02 06:33:31;;;;;;;8.32;2.53;;;;;;;11.93;100.00;99710.94;6193438;23;20495;-75
2021/10/02 06:35:56;;;;;;;13.18;2.55;;;;;;;11.95;100.00;99696.69;6194028;23;20008;-77
2021/10/02 06:38:24;;;;;;;7.50;2.17;;;;;;;11.96;100.00;99693.59;6168739;23;20315;-76
2021/10/02 06:40:50;;;;;;;8.65;2.42;;;;;;;12.00;100.00;99688.19;6168999;23;20004;-75
2021/10/02 06:43:16;;;;;;;11.60;2.55;;;;;;;12.01;100.00;99689.84;6193663;23;20099;-74
2021/10/02 06:45:41;;;;;;;8.73;2.83;;;;;;;12.06;100.00;99675.75;6169043;23;20303;-74
2021/10/02 06:48:07;;;;;;;9.60;2.83;;;;;;;12.04;100.00;99664.16;6144125;23;20015;-74
2021/10/02 06:50:33;;;;;;;10.10;2.88;;;;;;;12.06;100.00;99667.41;6168901;23;20005;-75
2021/10/02 06:52:59;;;;;;;9.38;2.80;;;;;;;12.05;100.00;99669.38;6193166;23;20032;-75
2021/10/02 06:55:33;;;;;;;12.65;3.55;;;;;;;12.07;100.00;99666.28;6169271;23;20004;-76
2021/10/02 06:57:59;;;;;;;12.15;3.42;;;;;;;12.13;100.00;99667.75;6144185;23;20422;-76
2021/10/02 07:00:24;;;;;;;8.60;3.00;;;;;;;12.11;100.00;99666.44;6169180;23;20027;-74
2021/10/02 07:02:56;;;;;;;11.90;3.15;;;;;;;12.13;100.00;99659.41;6193508;23;20004;-75
2021/10/02 07:05:21;;;;;;;13.10;3.97;;;;;;;12.16;100.00;99658.75;6168698;23;20004;-74
2021/10/02 07:07:47;;;;;;;13.13;3.40;;;;;;;12.23;100.00;99641.56;6193242;23;20417;-75
2021/10/02 07:10:12;;;;;;;16.88;4.28;;;;;;;12.21;100.00;99660.59;6193231;23;20005;-73
2021/10/02 07:12:38;;;;;;;11.55;3.75;;;;;;;12.24;100.00;99643.22;6220015;23;20039;-75
2021/10/02 07:15:04;;;;;;;9.75;3.65;;;;;;;12.26;100.00;99658.47;6193623;23;20340;-75
2021/10/02 07:17:30;;;;;;;11.65;4.15;;;;;;;12.30;100.00;99647.47;6168565;23;20079;-73
2021/10/02 07:19:56;;;;;;;17.15;4.00;;;;;;;12.32;100.00;99642.41;6219967;23;20004;-73
2021/10/02 07:22:21;;;;;;;12.18;3.97;;;;;;;12.35;100.00;99616.69;6193219;23;20009;-75
2021/10/02 07:24:47;;;;;;;12.13;3.50;;;;;;;12.38;100.00;99618.00;6193068;23;20023;-74
2021/10/02 07:27:12;;;;;;;14.27;4.40;;;;;;;12.42;100.00;99616.19;6143396;23;20311;-74
2021/10/02 07:29:38;;;;;;;13.95;3.78;;;;;;;12.44;100.00;99605.56;6168285;23;20008;-75
2021/10/02 07:32:03;;;;;;;16.80;4.65;;;;;;;12.49;100.00;99597.03;6144019;23;20009;-74
2021/10/02 07:34:29;;;;;;;16.02;4.50;;;;;;;12.52;100.00;99604.72;6143751;23;20031;-74
2021/10/02 07:36:54;;;;;;;11.30;3.80;;;;;;;12.53;100.00;99595.22;6119803;23;20016;-74
2021/10/02 07:39:20;;;;;;;23.25;4.80;;;;;;;12.59;100.00;99599.50;6167901;23;20009;-74
2021/10/02 07:41:47;;;;;;;12.68;3.88;;;;;;;12.63;100.00;99575.38;6119380;23;20519;-74
2021/10/02 07:44:12;;;;;;;21.27;4.95;;;;;;;12.69;100.00;99571.28;6144291;23;20329;-75
2021/10/02 07:46:47;;;;;;;17.88;4.35;;;;;;;12.70;100.00;99595.22;6143492;23;20012;-74
2021/10/02 07:49:13;;;;;;;19.27;4.15;;;;;;;12.77;100.00;99577.16;6144829;23;20433;-74
2021/10/02 07:51:39;;;;;;;13.90;3.88;;;;;;;12.79;100.00;99580.41;6168243;23;20009;-74
2021/10/02 07:54:05;;;;;;;11.25;3.20;;;;;;;12.81;100.00;99592.06;6168065;23;20059;-74
2021/10/02 07:56:31;;;;;;;16.92;4.07;;;;;;;12.84;100.00;99571.88;6167971;23;20016;-75
2021/10/02 07:59:01;;;;;;;16.90;3.85;;;;;;;12.87;100.00;99560.06;6119521;23;20008;-74
2021/10/02 08:01:28;;;;;;;18.38;4.03;;;;;;;12.90;100.00;99546.31;6170284;23;20028;-74
2021/10/02 08:03:54;;;;;;;18.65;4.82;;;;;;;12.96;100.00;99546.94;6143540;23;20005;-74
2021/10/02 08:06:21;;;;;;;22.58;4.25;;;;;;;12.99;100.00;99553.84;6143546;23;20008;-74
2021/10/02 08:08:46;;;;;;;14.43;3.70;;;;;;;12.99;100.00;99551.84;6118271;23;20048;-74
2021/10/02 08:11:12;;;;;;;16.80;3.45;;;;;;;13.06;100.00;99538.19;6119365;23;20075;-74
2021/10/02 08:13:37;;;;;;;19.10;3.67;;;;;;;13.06;100.00;99541.00;6144479;23;20008;-73
2021/10/02 08:16:03;;;;;;;19.20;4.35;;;;;;;13.11;100.00;99535.22;6118959;23;20011;-75
2021/10/02 08:18:36;;;;;;;12.02;3.30;;;;;;;13.14;100.00;99528.97;6167776;23;20410;-75
2021/10/02 08:21:01;;;;;;;16.98;3.65;;;;;;;13.15;100.00;99522.28;6219298;23;20438;-79
2021/10/02 08:24:05;;;;;;;18.90;3.88;;;;;;;13.16;100.00;99523.09;6142535;23;20028;-81
2021/10/02 08:26:31;;;;;;;14.00;4.00;;;;;;;13.23;100.00;99516.97;6197228;23;20004;-74
2021/10/02 08:29:00;;;;;;;17.10;4.25;;;;;;;13.26;100.00;99511.59;6192222;23;20008;-79
2021/10/02 08:31:34;;;;;;;22.13;5.00;;;;;;;13.31;100.00;99513.34;6170446;23;20063;-78
2021/10/02 08:34:01;;;;;;;16.92;4.15;;;;;;;13.32;100.00;99499.09;6143430;23;20005;-78
2021/10/02 08:36:27;;;;;;;19.83;4.80;;;;;;;13.35;100.00;99492.03;6143519;23;20079;-78
2021/10/02 08:38:52;;;;;;;22.40;5.05;;;;;;;13.41;100.00;99496.25;6192274;23;20004;-77
2021/10/02 08:41:19;;;;;;;16.42;5.05;;;;;;;13.41;100.00;99501.81;6218891;23;20005;-77
2021/10/02 08:43:52;;;;;;;19.42;4.72;;;;;;;13.44;100.00;99483.59;6143209;23;20008;-78
2021/10/02 08:46:20;;;;;;;;;;;;;;;13.46;100.00;99470.94;6145011;23;20147;-78
2021/10/02 08:49:22;;;;;;;16.30;4.70;;;;;;;13.48;100.00;99470.59;6192536;23;19904;-78
2021/10/02 08:52:05;;;;;;;18.35;4.15;;;;;;;13.49;100.00;99466.66;6147069;23;20039;-79
2021/10/02 08:54:43;;;;;;;19.83;4.82;;;;;;;13.50;100.00;99469.09;6147735;23;20009;-80
2021/10/02 08:57:23;;;;;;;20.02;4.32;;;;;;;13.52;100.00;99455.66;6142818;23;20005;-79
2021/10/02 08:59:53;;;;;;;18.65;4.07;;;;;;;13.54;100.00;99446.91;6168354;23;20007;-79
2021/10/02 09:02:22;;;;;;;18.15;4.28;;;;;;;13.56;100.00;99439.84;6143043;23;20008;-82
2021/10/02 09:04:49;;;;;;;21.73;4.78;;;;;;;13.60;100.00;99435.25;6115837;23;20041;-79
2021/10/02 09:07:15;;;;;;;21.27;3.80;;;;;;;13.58;100.00;99425.56;6143693;23;20062;-78
2021/10/02 09:09:54;;;;;;;21.95;4.00;;;;;;;13.61;100.00;99425.69;6169512;23;20005;-78
2021/10/02 09:12:23;;;;;;;18.15;5.13;;;;;;;13.64;100.00;99432.56;6167595;23;20015;-78
2021/10/02 09:14:50;;;;;;;22.95;5.07;;;;;;;13.66;100.00;99424.69;6167713;23;20044;-79
2021/10/02 09:17:30;;;;;;;21.38;4.60;;;;;;;13.66;100.00;99415.50;6167572;23;20005;-79
2021/10/02 09:20:04;;;;;;;15.45;4.65;;;;;;;13.68;100.00;99404.81;6147619;23;20360;-77
2021/10/02 09:22:36;;;;;;;17.33;4.28;;;;;;;13.71;100.00;99404.94;6145196;23;20019;-78
2021/10/02 09:25:21;;;;;;;23.45;4.55;;;;;;;13.71;100.00;99398.56;6147128;23;20329;-78
2021/10/02 09:28:15;;;;;;;24.52;4.93;;;;;;;13.74;100.00;99392.28;6142539;23;20008;-78
2021/10/02 09:31:02;;;;;;;23.98;4.43;;;;;;;13.71;100.00;99384.63;6167319;23;20009;-80
2021/10/02 09:33:28;;;;;;;15.90;4.35;;;;;;;13.73;100.00;99373.91;6140203;23;20066;-76
2021/10/02 09:35:54;;;;;;;20.10;5.25;;;;;;;13.76;100.00;99370.41;6191462;23;20012;-77
2021/10/02 09:38:20;;;;;;;25.15;5.13;;;;;;;13.77;100.00;99367.31;6191819;23;20011;-75
2021/10/02 09:40:53;;;;;;;19.98;4.88;;;;;;;13.77;100.00;99352.53;6192191;23;20075;-75
2021/10/02 09:43:19;;;;;;;20.45;4.45;;;;;;;13.78;100.00;99354.16;6142630;23;19996;-75
2021/10/02 09:45:44;;;;;;;19.67;5.22;;;;;;;13.81;100.00;99357.06;6142965;23;20009;-75
2021/10/02 09:48:11;;;;;;;20.75;5.03;;;;;;;13.82;100.00;99343.97;6142825;23;20008;-75
2021/10/02 09:50:45;;;;;;;20.35;5.28;;;;;;;13.84;100.00;99330.44;6169585;23;20012;-72
2021/10/02 09:53:12;;;;;;;25.60;5.63;;;;;;;13.85;100.00;99320.94;6194053;23;20004;-72
2021/10/02 09:55:45;;;;;;;18.33;5.45;;;;;;;13.85;100.00;99309.78;6194041;23;20491;-74
2021/10/02 09:58:34;;;;;;;26.13;5.35;;;;;;;13.87;100.00;99290.69;6170618;23;20452;-73
2021/10/02 10:01:01;;;;;;;24.65;5.53;;;;;;;13.91;100.00;99291.66;6220017;23;20082;-74
2021/10/02 10:03:41;;;;;;;23.50;5.45;;;;;;;13.93;100.00;99283.75;6194246;23;20005;-75
2021/10/02 10:06:26;;;;;;;17.73;5.03;;;;;;;13.96;100.00;99282.25;6194069;23;20317;-74
2021/10/02 10:09:04;;;;;;;19.73;4.57;;;;;;;14.00;100.00;99246.88;6194063;23;20329;-74
2021/10/02 10:11:43;;;;;;;23.17;5.30;;;;;;;14.07;100.00;99241.53;6218827;23;20095;-75
2021/10/02 10:14:08;;;;;;;22.13;4.95;;;;;;;14.11;100.00;99233.28;6220282;23;20008;-70
2021/10/02 10:16:38;;;;;;;21.27;4.93;;;;;;;14.17;100.00;99223.50;6169026;23;20008;-70
2021/10/02 10:19:22;;;;;;;17.52;4.78;;;;;;;14.22;100.00;99200.94;6220580;23;20068;-68
2021/10/02 10:22:08;;;;;;;18.52;5.20;;;;;;;14.28;100.00;99178.00;6220567;23;20048;-73
2021/10/02 10:24:35;;;;;;;17.75;4.53;;;;;;;14.33;100.00;99160.19;6220322;23;20079;-70
2021/10/02 10:27:00;;;;;;;17.13;5.10;;;;;;;14.38;100.00;99164.72;6193440;23;20009;-71
2021/10/02 10:29:41;;;;;;;18.33;4.88;;;;;;;14.44;100.00;99152.97;6193093;23;20016;-71
2021/10/02 10:32:11;;;;;;;21.17;5.28;;;;;;;14.49;100.00;99146.31;6169914;23;20004;-71
2021/10/02 10:34:40;;;;;;;19.95;5.30;;;;;;;14.55;100.00;99141.31;6144286;23;20011;-72
2021/10/02 10:37:06;;;;;;;22.33;5.30;;;;;;;14.59;100.00;99114.28;6194561;23;20039;-71
2021/10/02 10:39:33;;;;;;;13.93;4.47;;;;;;;14.62;100.00;99128.34;6193389;23;20362;-71
2021/10/02 10:42:01;;;;;;;21.52;4.90;;;;;;;14.63;100.00;99102.06;6193863;23;20004;-75
2021/10/02 10:44:26;;;;;;;16.88;5.05;;;;;;;14.65;100.00;99113.69;6168999;23;20014;-73
2021/10/02 10:46:52;;;;;;;23.52;5.68;;;;;;;14.65;100.00;99107.28;6193534;23;20008;-73
2021/10/02 10:49:17;;;;;;;16.20;4.53;;;;;;;14.65;100.00;99102.50;6194474;23;20012;-74
2021/10/02 10:51:43;;;;;;;13.15;4.32;;;;;;;14.65;100.00;99079.34;6168897;23;20004;-75
2021/10/02 10:54:15;;;;;;;16.63;4.55;;;;;;;14.69;100.00;99097.03;6219868;23;20012;-76
2021/10/02 10:56:42;;;;;;;18.15;4.47;;;;;;;14.69;100.00;99085.84;6193220;23;20005;-69
2021/10/02 10:59:08;;;;;;;13.27;5.13;;;;;;;14.67;100.00;99066.63;6220230;23;20008;-69
2021/10/02 11:01:37;;;;;;;18.83;5.13;;;;;;;14.69;100.00;99060.72;6219453;23;20015;-68
2021/10/02 11:04:03;;;;;;;18.80;4.60;;;;;;;14.69;100.00;99072.69;6219827;23;20009;-67
2021/10/02 11:06:51;;;;;;;21.02;5.50;;;;;;;14.67;100.00;99049.06;6220050;23;20079;-68
2021/10/02 11:09:16;;;;;;;15.27;4.85;;;;;;;14.67;100.00;99055.47;6193012;23;20004;-67
2021/10/02 11:11:54;;;;;;;14.20;4.63;;;;;;;14.63;100.00;99048.16;6143659;23;20012;-70
2021/10/02 11:14:21;;;;;;;19.17;4.22;;;;;;;14.63;100.00;99042.59;6218993;23;20009;-67
2021/10/02 11:16:48;;;;;;;14.25;4.90;;;;;;;14.63;100.00;99031.41;6144126;23;20426;-66
2021/10/02 11:19:39;;;;;;;20.08;5.22;;;;;;;14.63;100.00;99025.81;6144051;23;20001;-66
2021/10/02 11:22:35;;;;;;;16.70;4.45;;;;;;;14.64;100.00;99005.88;6167902;23;20047;-67
2021/10/02 11:25:01;;;;;;;10.82;4.65;;;;;;;14.64;100.00;98999.50;6192941;23;20015;-67
2021/10/02 11:27:27;;;;;;;18.20;4.90;;;;;;;14.65;100.00;98995.53;6143446;23;20079;-67
2021/10/02 11:29:52;;;;;;;16.05;5.13;;;;;;;14.66;100.00;98997.16;6144181;23;20005;-67
2021/10/02 11:32:21;;;;;;;19.60;4.75;;;;;;;14.67;100.00;98998.78;6168334;23;20010;-67
2021/10/02 11:35:14;;;;;;;19.35;5.32;;;;;;;14.68;100.00;98983.63;6193234;23;20496;-67
2021/10/02 11:37:46;;;;;;;19.90;4.63;;;;;;;14.68;100.00;98975.25;6192595;23;20047;-67
2021/10/02 11:40:36;;;;;;;21.17;4.60;;;;;;;14.68;100.00;98983.63;6217901;23;20015;-67
2021/10/02 11:43:11;;;;;;;17.98;5.18;;;;;;;14.65;100.00;98971.19;6218252;23;20030;-67
2021/10/02 11:45:37;;;;;;;17.02;4.40;;;;;;;14.67;100.00;98959.66;6219592;23;20012;-71
2021/10/02 11:48:14;;;;;;;14.65;4.20;;;;;;;14.68;100.00;98961.28;6168339;23;20016;-72
2021/10/02 11:50:40;;;;;;;16.08;4.40;;;;;;;14.67;100.00;98934.50;6219642;23;20091;-70
2021/10/02 11:53:06;;;;;;;13.82;4.10;;;;;;;14.69;100.00;98918.19;6219935;23;20066;-75
2021/10/02 11:55:40;;;;;;;17.17;4.68;;;;;;;14.67;100.00;98909.38;6219572;23;20039;-75
2021/10/02 11:58:09;;;;;;;13.05;3.58;;;;;;;14.66;100.00;98902.16;6219892;23;20020;-75
2021/10/02 12:00:35;;;;;;;13.95;3.80;;;;;;;14.66;100.00;98904.97;6218027;23;20012;-75
2021/10/02 12:03:01;;;;;;;15.82;4.07;;;;;;;14.66;100.00;98883.41;6193054;23;20013;-75
2021/10/02 12:05:27;;;;;;;15.45;4.28;;;;;;;14.66;100.00;98882.59;6168293;23;20051;-75
2021/10/02 12:07:53;;;;;;;11.43;3.92;;;;;;;14.66;100.00;98866.66;6219183;23;20017;-75
2021/10/02 12:10:21;;;;;;;14.43;4.00;;;;;;;14.66;100.00;98860.25;6218995;23;20008;-75
2021/10/02 12:12:46;;;;;;;13.07;4.20;;;;;;;14.68;100.00;98863.47;6168249;23;20036;-75
2021/10/02 12:15:12;;;;;;;13.60;4.68;;;;;;;14.67;100.00;98847.91;6143656;23;20015;-75
2021/10/02 12:17:53;;;;;;;12.50;4.30;;;;;;;14.68;100.00;98858.72;6118994;23;20413;-75
2021/10/02 12:20:18;;;;;;;10.65;4.18;;;;;;;14.70;100.00;98833.19;6193154;23;20012;-75
2021/10/02 12:22:44;;;;;;;14.48;4.82;;;;;;;14.68;100.00;98838.31;6192261;23;20021;-75
2021/10/02 12:25:09;;;;;;;13.27;4.38;;;;;;;14.71;100.00;98835.63;6168171;23;20005;-75